Time;durP1;ratioP1;P1;durP2;ratioP2;P2;SDS_P1;SDS_P2;PMS_P1;PMS_P2;Temp;Humidity;BMP_temperature;BMP_pressure;BME280_temperature;BME280_humidity;BME280_pressure;Samples;Min_cycle;Max_cycle;Signal;HPM_P1;HPM_P2
2021/05/13 00:02:16;;;;;;;10.75;3.33;;;7.40;99.90;;;6.17;85.74;96901.53;4940682;29;20145;-66
2021/05/13 00:05:04;;;;;;;9.65;3.40;;;7.40;99.90;;;6.14;85.99;96899.09;4918040;29;20046;-66
2021/05/13 00:07:52;;;;;;;12.95;2.78;;;7.30;99.90;;;6.11;86.21;96898.34;4925906;29;20492;-66
2021/05/13 00:10:40;;;;;;;9.25;3.13;;;7.30;99.90;;;6.14;85.85;96898.25;4920077;29;20044;-66
2021/05/13 00:13:29;;;;;;;13.45;3.90;;;7.20;99.90;;;6.02;86.49;96897.78;4945679;29;20552;-67
2021/05/13 00:16:17;;;;;;;13.55;4.65;;;7.20;99.90;;;6.01;86.67;96896.09;4949124;29;20058;-66
2021/05/13 00:19:09;;;;;;;16.45;5.63;;;7.20;99.90;;;5.89;87.52;96895.66;4927059;29;20130;-66
2021/05/13 00:21:56;;;;;;;14.10;5.68;;;7.20;99.90;;;5.80;88.09;96892.50;4918088;29;20039;-66
2021/05/13 00:24:44;;;;;;;13.88;4.57;;;7.20;99.90;;;5.79;88.08;96885.69;4940575;29;20051;-66
2021/05/13 00:27:31;;;;;;;14.07;3.67;;;7.10;99.90;;;5.94;87.36;96884.31;4945463;28;20130;-66
2021/05/13 00:30:20;;;;;;;13.38;4.25;;;7.10;99.90;;;6.11;86.03;96885.44;4944537;28;20043;-66
2021/05/13 00:33:08;;;;;;;11.98;4.00;;;7.00;99.90;;;6.08;86.01;96886.41;4943761;29;20050;-66
2021/05/13 00:35:55;;;;;;;12.38;3.95;;;6.90;99.90;;;6.03;86.34;96888.31;4942099;28;20048;-66
2021/05/13 00:38:43;;;;;;;10.35;4.22;;;6.90;99.90;;;5.88;87.44;96881.91;4949520;28;20535;-67
2021/05/13 00:41:31;;;;;;;13.45;4.03;;;6.90;99.90;;;5.73;88.10;96882.47;4950566;28;20051;-67
2021/05/13 00:44:18;;;;;;;10.90;3.95;;;6.90;99.90;;;5.67;88.51;96880.94;4950110;28;20078;-66
2021/05/13 00:47:05;;;;;;;9.73;3.30;;;7.00;99.90;;;5.79;88.13;96883.09;4948057;28;20043;-66
2021/05/13 00:49:52;;;;;;;8.35;3.08;;;6.90;99.90;;;5.93;86.93;96880.03;4933409;29;20044;-66
2021/05/13 00:52:40;;;;;;;7.55;2.67;;;6.90;99.90;;;6.02;86.26;96871.16;4950214;28;20058;-66
2021/05/13 00:55:28;;;;;;;9.35;3.25;;;6.90;99.90;;;6.14;84.77;96877.63;4947453;28;20055;-66
2021/05/13 00:58:15;;;;;;;9.88;2.10;;;7.00;99.90;;;6.26;83.36;96872.03;4948806;28;20055;-66
2021/05/13 01:01:08;;;;;;;8.57;2.40;;;7.00;99.90;;;6.32;81.89;96871.81;4936596;28;20047;-66
2021/05/13 01:03:55;;;;;;;7.07;2.40;;;6.90;99.90;;;6.30;81.68;96859.88;4953299;28;20047;-66
2021/05/13 01:06:48;;;;;;;8.73;3.13;;;7.00;99.90;;;6.13;84.33;96863.88;4937802;28;20058;-66
2021/05/13 01:09:35;;;;;;;6.93;3.20;;;7.00;99.90;;;5.94;85.35;96865.44;4946879;28;20203;-66
2021/05/13 01:12:23;;;;;;;8.60;2.72;;;6.90;99.90;;;5.94;84.82;96861.13;4940323;29;20377;-66
2021/05/13 01:15:24;;;;;;;11.48;3.20;;;6.90;99.90;;;5.84;85.18;96863.19;4949763;28;20095;-66
2021/05/13 01:18:17;;;;;;;9.48;2.55;;;6.70;99.90;;;5.87;83.23;96857.91;4926490;29;20126;-66
2021/05/13 01:21:05;;;;;;;7.38;2.08;;;6.70;99.90;;;5.86;82.93;96857.94;4949251;29;20055;-67
2021/05/13 01:23:52;;;;;;;4.85;2.15;;;6.70;99.90;;;5.89;82.66;96841.56;4952437;28;20047;-66
2021/05/13 01:26:47;;;;;;;9.13;2.58;;;6.70;99.90;;;5.97;82.47;96845.56;4935947;29;20040;-66
2021/05/13 01:29:36;;;;;;;8.77;1.88;;;6.80;99.90;;;5.90;81.52;96844.06;4948703;29;20062;-66
2021/05/13 01:32:23;;;;;;;9.80;2.55;;;6.70;99.90;;;5.80;81.91;96838.41;4940928;29;20066;-66
2021/05/13 01:35:11;;;;;;;7.25;2.60;;;6.70;99.90;;;5.78;81.90;96836.78;4952573;28;20083;-66
2021/05/13 01:38:15;;;;;;;4.97;1.85;;;6.60;99.90;;;5.82;82.04;96843.53;4952216;29;20106;-66
2021/05/13 01:41:02;;;;;;;5.85;3.15;;;6.60;99.90;;;5.86;82.09;96832.19;4940093;29;20167;-66
2021/05/13 01:43:50;;;;;;;6.43;2.30;;;6.60;99.90;;;5.88;81.40;96830.41;4949117;28;20087;-66
2021/05/13 01:46:37;;;;;;;9.80;2.50;;;6.60;99.90;;;5.62;83.86;96821.03;4952403;29;20115;-66
2021/05/13 01:49:26;;;;;;;8.13;1.88;;;6.50;99.90;;;5.72;82.94;96824.13;4953838;28;20075;-66
2021/05/13 01:52:13;;;;;;;7.78;1.73;;;6.40;99.90;;;5.80;81.59;96817.81;4954385;28;20160;-66
2021/05/13 01:55:01;;;;;;;5.60;2.05;;;6.50;99.90;;;5.66;81.57;96815.72;4943999;28;20392;-67
2021/05/13 01:57:48;;;;;;;5.07;1.38;;;6.50;99.90;;;5.66;81.14;96814.91;4935985;28;20569;-66
2021/05/13 02:00:37;;;;;;;11.00;2.00;;;6.40;99.90;;;5.60;81.16;96815.94;4951014;28;20050;-65
2021/05/13 02:03:25;;;;;;;6.32;1.85;;;6.30;99.90;;;5.50;81.73;96816.34;4937613;28;20067;-66
2021/05/13 02:06:13;;;;;;;7.57;2.20;;;6.30;99.90;;;5.49;84.16;96817.22;4953617;28;20047;-66
2021/05/13 02:09:00;;;;;;;6.50;2.17;;;6.30;99.90;;;5.41;82.16;96814.91;4936437;28;20039;-66
2021/05/13 02:11:28;;;;;;;5.65;2.30;;;6.30;99.90;;;5.31;81.91;96819.50;4917699;29;20058;-66
2021/05/13 02:13:55;;;;;;;6.20;2.15;;;6.20;99.90;;;5.39;81.47;96817.53;4925533;28;20838;-66
2021/05/13 02:16:40;;;;;;;5.30;1.70;;;6.20;99.90;;;5.28;83.35;96818.78;4939830;28;20073;-66
2021/05/13 02:19:27;;;;;;;7.32;2.58;;;6.10;99.90;;;5.09;85.39;96821.97;4941699;28;20090;-66
2021/05/13 02:22:15;;;;;;;6.15;1.83;;;6.10;99.90;;;5.21;84.08;96826.69;4948257;29;20070;-66
2021/05/13 02:25:04;;;;;;;4.72;2.05;;;6.00;99.90;;;5.30;83.62;96812.69;4945868;28;20036;-66
2021/05/13 02:27:51;;;;;;;7.82;2.00;;;6.10;99.90;;;5.34;82.71;96816.03;4921562;29;20072;-66
2021/05/13 02:30:39;;;;;;;5.00;1.50;;;6.10;99.90;;;5.24;81.02;96807.75;4935226;29;20047;-66
2021/05/13 02:33:26;;;;;;;4.65;1.85;;;6.10;99.90;;;5.03;81.51;96815.28;4936114;28;20051;-66
2021/05/13 02:36:13;;;;;;;5.25;2.00;;;6.10;99.90;;;5.18;81.19;96810.53;4940552;29;20047;-66
2021/05/13 02:39:01;;;;;;;5.45;2.15;;;6.00;99.90;;;5.15;81.57;96815.78;4936710;28;20047;-66
2021/05/13 02:41:48;;;;;;;6.50;1.95;;;5.90;99.90;;;5.11;83.17;96820.19;4950396;28;20389;-66
2021/05/13 02:44:36;;;;;;;6.43;2.25;;;6.00;99.90;;;4.85;85.50;96817.63;4952818;28;20567;-66
2021/05/13 02:47:23;;;;;;;8.23;2.72;;;5.90;99.90;;;4.76;86.98;96811.03;4952434;29;20044;-66
2021/05/13 02:50:13;;;;;;;8.60;2.38;;;5.80;99.90;;;4.71;88.09;96820.63;4946778;28;20780;-66
2021/05/13 02:53:00;;;;;;;7.38;2.90;;;5.70;99.90;;;4.46;90.41;96821.38;4953329;29;20039;-66
2021/05/13 02:55:48;;;;;;;6.20;3.28;;;5.80;99.90;;;4.42;90.80;96818.94;4931536;28;20055;-66
2021/05/13 02:58:35;;;;;;;6.70;2.30;;;5.70;99.90;;;4.55;90.28;96827.97;4933612;28;20100;-66
2021/05/13 03:01:26;;;;;;;13.40;3.38;;;5.60;99.90;;;4.51;90.67;96827.22;4937006;29;20519;-66
2021/05/13 03:04:14;;;;;;;8.52;3.00;;;5.60;99.90;;;4.71;90.15;96818.88;4934080;29;20043;-66
2021/05/13 03:07:01;;;;;;;6.18;2.17;;;5.60;99.90;;;4.84;88.31;96816.78;4952219;29;20424;-66
2021/05/13 03:09:56;;;;;;;8.02;2.80;;;5.70;99.90;;;4.89;87.88;96817.47;4937592;28;20519;-66
2021/05/13 03:12:43;;;;;;;7.45;3.13;;;5.70;99.90;;;4.73;89.30;96816.28;4938404;29;20058;-66
2021/05/13 03:15:31;;;;;;;10.65;2.85;;;5.70;99.90;;;4.90;88.27;96820.88;4943574;29;20062;-66
2021/05/13 03:18:23;;;;;;;7.13;2.63;;;5.80;99.90;;;4.98;88.11;96818.91;4946413;28;20051;-65
2021/05/13 03:21:16;;;;;;;10.00;3.10;;;5.80;99.90;;;4.88;88.17;96813.22;4937225;28;20039;-66
2021/05/13 03:24:29;;;;;;;8.60;2.70;;;5.80;99.90;;;4.59;89.74;96824.44;4948835;28;20050;-66
2021/05/13 03:30:14;;;;;;;8.15;3.53;;;5.70;99.90;;;4.28;91.30;96812.50;4938890;28;20048;-66
2021/05/13 03:33:02;;;;;;;10.30;3.13;;;5.60;99.90;;;4.53;89.92;96816.91;4941116;29;20039;-66
2021/05/13 03:35:49;;;;;;;8.80;3.70;;;5.40;99.90;;;4.61;88.77;96812.38;4950746;29;20044;-66
2021/05/13 03:38:37;;;;;;;8.98;3.33;;;5.30;99.90;;;4.65;88.49;96806.22;4948772;28;20042;-66
2021/05/13 03:41:24;;;;;;;13.07;3.60;;;5.30;99.90;;;4.65;88.16;96800.25;4937280;29;20704;-66
2021/05/13 03:44:11;;;;;;;8.05;3.25;;;5.40;99.90;;;4.86;86.91;96796.16;4938616;29;20051;-66
2021/05/13 03:46:59;;;;;;;8.40;3.47;;;5.50;99.90;;;4.85;86.47;96795.31;4946200;29;20054;-66
2021/05/13 03:49:46;;;;;;;8.25;3.78;;;5.60;99.90;;;4.85;87.13;96784.19;4942171;28;20066;-66
2021/05/13 03:52:33;;;;;;;10.43;3.60;;;5.70;99.90;;;4.72;88.48;96781.16;4934420;29;20067;-65
2021/05/13 03:55:21;;;;;;;12.73;4.18;;;5.70;99.90;;;4.58;89.20;96779.91;4941461;28;20083;-65
2021/05/13 03:58:10;;;;;;;10.10;3.50;;;5.80;99.90;;;4.65;88.87;96783.09;4950908;28;20126;-66
2021/05/13 04:03:45;;;;;;;9.90;4.43;;;5.80;99.90;;;4.54;89.13;96768.03;4943900;28;20083;-66
2021/05/13 04:06:32;;;;;;;8.95;3.88;;;5.70;99.90;;;4.64;87.97;96766.00;4950900;28;20661;-66
2021/05/13 04:09:19;;;;;;;8.13;3.90;;;5.70;99.90;;;4.70;87.49;96759.81;4930715;29;20047;-65
2021/05/13 04:12:07;;;;;;;10.25;3.78;;;5.70;99.90;;;4.66;87.61;96763.38;4948664;28;20048;-66
2021/05/13 04:14:56;;;;;;;9.77;3.95;;;5.80;99.90;;;4.60;88.10;96760.09;4951238;29;20043;-65
2021/05/13 04:17:43;;;;;;;11.68;4.13;;;5.80;99.90;;;4.40;88.75;96754.75;4935704;29;20055;-66
2021/05/13 04:20:30;;;;;;;13.05;4.10;;;5.90;99.90;;;4.32;88.97;96754.16;4950925;28;20047;-65
2021/05/13 04:23:18;;;;;;;8.57;3.95;;;5.90;99.90;;;4.32;89.07;96757.56;4951101;28;20051;-66
2021/05/13 04:26:05;;;;;;;7.07;3.40;;;5.90;99.90;;;4.50;88.61;96763.88;4933672;29;20047;-65
2021/05/13 04:28:53;;;;;;;9.38;3.75;;;5.90;99.90;;;4.88;87.11;96755.78;4949723;28;20078;-65
2021/05/13 04:31:40;;;;;;;8.18;2.72;;;5.90;99.90;;;5.15;85.54;96759.19;4947963;28;20059;-66
2021/05/13 04:34:28;;;;;;;9.25;3.83;;;6.10;99.90;;;5.24;84.63;96761.44;4945304;28;20123;-65
2021/05/13 04:37:15;;;;;;;10.18;4.05;;;6.30;99.90;;;5.15;85.47;96765.16;4950393;28;20047;-66
2021/05/13 04:40:04;;;;;;;13.45;7.57;;;6.40;99.90;;;4.89;86.34;96766.03;4952370;28;20059;-65
2021/05/13 04:42:51;;;;;;;19.85;10.85;;;6.40;99.90;;;4.82;86.89;96773.13;4952444;29;20047;-66
2021/05/13 04:45:39;;;;;;;12.95;7.07;;;6.40;99.90;;;4.70;87.77;96770.94;4948569;28;20036;-65
2021/05/13 04:48:28;;;;;;;7.47;2.85;;;6.40;99.90;;;4.88;87.73;96769.53;4945506;29;20051;-65
2021/05/13 04:51:31;;;;;;;8.73;3.17;;;6.40;99.90;;;5.27;86.20;96768.19;4943620;29;20419;-66
2021/05/13 04:54:19;;;;;;;5.73;2.40;;;6.40;99.90;;;5.19;86.28;96763.34;4945319;28;20054;-66
2021/05/13 04:57:06;;;;;;;7.32;3.17;;;6.40;99.90;;;4.95;87.98;96770.13;4952799;28;20178;-66
2021/05/13 04:59:55;;;;;;;10.38;3.50;;;6.50;99.90;;;5.09;87.84;96756.84;4953312;28;20141;-65
2021/05/13 05:02:43;;;;;;;9.05;2.90;;;6.60;99.90;;;5.36;86.91;96758.47;4950650;28;20412;-66
2021/05/13 05:05:30;;;;;;;12.00;3.20;;;6.80;99.90;;;5.27;88.08;96763.06;4949933;29;20548;-66
2021/05/13 05:08:17;;;;;;;5.15;2.95;;;6.80;99.90;;;5.60;87.76;96766.19;4954005;28;20047;-66
2021/05/13 05:11:05;;;;;;;9.55;3.35;;;6.90;99.90;;;5.89;86.69;96762.56;4950990;29;20043;-66
2021/05/13 05:13:53;;;;;;;12.65;5.28;;;6.90;99.90;;;6.03;86.31;96773.22;4947538;28;20436;-65
2021/05/13 05:16:40;;;;;;;10.85;2.80;;;7.10;99.90;;;6.06;87.36;96769.69;4953373;29;20665;-66
2021/05/13 05:19:27;;;;;;;9.27;2.67;;;7.40;99.90;;;6.05;87.83;96768.03;4953967;28;20054;-66
2021/05/13 05:22:15;;;;;;;7.53;2.60;;;7.50;99.90;;;6.10;87.01;96763.53;4952718;28;20381;-66
2021/05/13 05:25:04;;;;;;;9.73;2.80;;;7.50;99.90;;;6.10;87.54;96763.53;4954026;28;20073;-66
2021/05/13 05:27:51;;;;;;;9.15;2.65;;;7.70;99.90;;;6.21;87.56;96757.97;4939185;29;20047;-65
2021/05/13 05:30:40;;;;;;;11.93;3.08;;;7.80;99.90;;;6.16;87.54;96754.72;4950864;28;20035;-66
2021/05/13 05:33:28;;;;;;;8.70;3.58;;;7.90;99.90;;;6.33;87.58;96748.94;4954874;28;20035;-66
2021/05/13 05:36:15;;;;;;;8.30;3.20;;;8.00;99.90;;;6.48;86.77;96745.75;4952465;28;20039;-66
2021/05/13 05:39:04;;;;;;;8.63;3.45;;;8.10;99.90;;;6.74;85.51;96746.44;4949085;29;20043;-65
2021/05/13 05:41:53;;;;;;;7.63;3.13;;;8.20;99.90;;;6.80;85.78;96739.28;4953338;29;20471;-66
2021/05/13 05:44:40;;;;;;;8.00;3.30;;;8.40;99.90;;;7.07;85.71;96733.88;4945404;28;20040;-65
2021/05/13 05:47:28;;;;;;;8.70;2.97;;;8.60;99.90;;;7.03;85.39;96733.19;4950616;29;20071;-65
2021/05/13 05:50:16;;;;;;;5.55;2.63;;;8.80;99.90;;;7.14;85.49;96735.31;4947461;28;20051;-66
2021/05/13 05:53:04;;;;;;;7.90;2.92;;;8.90;99.90;;;7.02;85.81;96736.66;4938350;29;20074;-66
2021/05/13 05:55:52;;;;;;;9.43;3.00;;;8.90;99.90;;;7.17;85.97;96737.75;4932580;28;20044;-66
2021/05/13 05:58:39;;;;;;;6.97;2.85;;;8.90;99.90;;;7.21;86.28;96735.91;4944544;29;20491;-66
2021/05/13 06:01:26;;;;;;;5.97;2.90;;;9.00;99.90;;;7.48;85.56;96734.69;4953221;28;20040;-65
2021/05/13 06:04:14;;;;;;;7.00;2.50;;;9.10;99.90;;;7.67;84.68;96732.13;4951451;28;20051;-65
2021/05/13 06:07:01;;;;;;;5.25;2.55;;;9.10;99.90;;;7.98;83.37;96728.16;4951078;28;20417;-66
2021/05/13 06:09:49;;;;;;;5.50;2.58;;;9.20;99.90;;;8.00;83.01;96728.09;4947462;28;20115;-66
2021/05/13 06:12:37;;;;;;;8.57;2.90;;;9.30;99.90;;;8.12;82.52;96719.78;4930562;29;20051;-65
2021/05/13 06:15:25;;;;;;;6.00;2.65;;;9.50;99.90;;;8.11;82.68;96715.53;4938085;29;20537;-66
2021/05/13 06:18:12;;;;;;;8.27;2.28;;;9.50;99.90;;;8.27;82.71;96719.06;4939807;29;20558;-66
2021/05/13 06:20:59;;;;;;;10.05;4.13;;;9.60;99.90;;;8.76;80.80;96716.75;4937997;28;20058;-66
2021/05/13 06:23:53;;;;;;;6.57;3.67;;;9.90;99.90;;;9.35;79.79;96706.88;4951118;28;20043;-66
2021/05/13 06:26:40;;;;;;;11.90;4.40;;;10.30;99.90;;;9.24;80.60;96706.59;4933414;29;20063;-66
2021/05/13 06:29:28;;;;;;;12.68;5.57;;;10.70;99.90;;;9.58;80.88;96715.22;4946642;28;20035;-66
2021/05/13 06:32:17;;;;;;;9.88;3.78;;;11.10;99.90;;;10.41;78.14;96710.75;4949197;28;20058;-66
2021/05/13 06:35:05;;;;;;;6.47;2.55;;;11.10;99.90;;;10.89;76.40;96707.13;4944585;28;20528;-66
2021/05/13 06:37:52;;;;;;;9.98;1.70;;;11.50;99.90;;;11.05;73.65;96704.47;4943565;28;20051;-66
2021/05/13 06:40:40;;;;;;;8.20;2.38;;;11.80;99.90;;;11.09;72.82;96707.75;4934740;29;20054;-66
2021/05/13 06:43:27;;;;;;;9.70;1.58;;;12.00;99.90;;;11.25;72.34;96711.13;4938312;29;20047;-66
2021/05/13 06:46:14;;;;;;;7.78;1.17;;;12.30;99.90;;;11.50;70.79;96704.47;4933135;29;20052;-66
2021/05/13 06:49:02;;;;;;;6.30;1.30;;;12.50;99.90;;;11.65;70.65;96711.31;4935609;28;20062;-66
2021/05/13 06:51:49;;;;;;;3.33;1.10;;;12.50;99.90;;;11.91;71.27;96709.75;4950565;28;20050;-66
2021/05/13 06:54:37;;;;;;;6.30;0.90;;;12.70;99.90;;;12.38;71.33;96706.88;4942458;28;20124;-66
2021/05/13 06:57:24;;;;;;;4.60;1.17;;;13.10;99.90;;;12.93;69.07;96705.88;4952125;28;20507;-66
2021/05/13 07:00:12;;;;;;;3.55;0.93;;;13.70;99.90;;;12.40;66.81;96707.59;4951182;28;20086;-66
2021/05/13 07:03:00;;;;;;;2.85;0.80;;;13.90;99.90;;;12.49;66.56;96709.63;4944025;29;20040;-66
2021/05/13 07:05:47;;;;;;;5.53;1.00;;;14.00;99.90;;;12.84;64.57;96706.50;4951469;28;20043;-66
2021/05/13 07:08:34;;;;;;;4.38;0.93;;;14.10;99.90;;;13.48;66.41;96709.19;4942962;28;20046;-66
2021/05/13 07:11:21;;;;;;;3.53;0.90;;;14.40;99.90;;;13.86;66.02;96711.78;4933284;29;20107;-66
2021/05/13 07:14:09;;;;;;;4.90;0.80;;;14.80;99.90;;;13.28;63.17;96710.56;4938066;28;20043;-66
2021/05/13 07:16:57;;;;;;;4.85;0.95;;;14.90;99.90;;;12.93;64.61;96716.31;4950014;29;20139;-66
2021/05/13 07:19:45;;;;;;;3.00;0.80;;;14.90;99.90;;;12.70;63.96;96710.84;4946948;28;20039;-66
2021/05/13 07:22:32;;;;;;;4.13;1.00;;;14.60;99.90;;;12.88;65.38;96713.16;4948694;28;20053;-66
2021/05/13 07:25:20;;;;;;;5.20;0.80;;;14.40;99.90;;;13.49;64.14;96706.50;4944859;28;20039;-66
2021/05/13 07:28:11;;;;;;;7.53;1.05;;;14.50;99.90;;;14.25;63.78;96706.47;4945082;28;20067;-66
2021/05/13 07:30:59;;;;;;;4.10;0.80;;;14.90;99.90;;;14.59;63.36;96708.34;4943060;28;20040;-67
2021/05/13 07:33:48;;;;;;;5.90;0.80;;;15.30;99.90;;;13.70;59.81;96714.63;4944060;29;20142;-66
2021/05/13 07:36:35;;;;;;;4.82;0.70;;;15.40;99.90;;;13.72;58.85;96707.53;4950418;28;20047;-66
2021/05/13 07:39:22;;;;;;;4.82;0.75;;;15.30;99.90;;;14.40;58.36;96697.56;4951572;28;20046;-66
2021/05/13 07:42:10;;;;;;;2.30;0.70;;;15.40;99.90;;;14.14;54.19;96696.78;4949789;28;20038;-66
2021/05/13 07:44:57;;;;;;;3.35;0.90;;;15.40;99.90;;;13.96;57.53;96699.78;4947982;28;20484;-66
2021/05/13 07:47:46;;;;;;;2.85;0.70;;;15.50;99.90;;;14.56;55.20;96698.13;4926269;29;20042;-66
2021/05/13 07:50:34;;;;;;;7.45;0.80;;;15.30;99.90;;;14.29;56.09;96690.47;4949224;28;20062;-67
2021/05/13 07:53:22;;;;;;;5.68;1.00;;;15.50;99.90;;;14.30;56.38;96694.78;4934021;29;20035;-66
2021/05/13 07:56:09;;;;;;;3.53;0.82;;;15.70;99.90;;;15.34;56.71;96688.03;4938506;28;20051;-66
2021/05/13 07:58:56;;;;;;;4.63;0.80;;;16.00;99.90;;;14.96;54.80;96683.91;4937447;28;20119;-67
2021/05/13 08:01:43;;;;;;;4.60;0.88;;;16.30;99.90;;;14.77;54.78;96685.28;4946547;28;20051;-67
2021/05/13 08:04:31;;;;;;;7.07;0.90;;;16.30;99.90;;;15.23;55.16;96688.84;4944388;28;20043;-66
2021/05/13 08:07:20;;;;;;;6.63;1.45;;;16.50;99.90;;;15.62;53.67;96682.38;4934341;28;20036;-66
2021/05/13 08:10:09;;;;;;;2.75;0.60;;;16.90;99.90;;;15.52;51.92;96688.44;4932407;28;20035;-67
2021/05/13 08:12:57;;;;;;;5.13;1.10;;;17.00;99.90;;;16.35;54.07;96688.03;4943071;28;20480;-67
2021/05/13 08:15:44;;;;;;;6.82;1.08;;;17.70;99.90;;;16.89;52.74;96687.16;4933277;28;20501;-66
2021/05/13 08:18:32;;;;;;;3.63;0.70;;;18.20;99.90;;;17.56;51.12;96683.31;4939915;28;20094;-66
2021/05/13 08:21:20;;;;;;;6.07;0.98;;;18.80;99.90;;;17.07;50.56;96679.56;4949155;29;20507;-66
2021/05/13 08:24:07;;;;;;;4.32;0.70;;;18.80;99.90;;;18.07;49.20;96686.03;4931808;29;20485;-66
2021/05/13 08:26:57;;;;;;;4.60;0.68;;;19.20;99.90;;;18.57;47.98;96678.94;4942369;28;20099;-66
2021/05/13 08:29:45;;;;;;;4.35;0.73;;;19.80;99.90;;;17.22;46.81;96676.59;4943919;28;20111;-66
2021/05/13 08:32:32;;;;;;;3.25;0.82;;;19.80;99.90;;;16.88;50.51;96672.41;4948721;29;20055;-66
2021/05/13 08:35:19;;;;;;;4.20;0.73;;;19.60;99.90;;;16.75;48.51;96679.56;4949431;28;20119;-66
2021/05/13 08:38:07;;;;;;;4.35;0.82;;;19.50;99.90;;;16.80;48.97;96672.19;4949171;28;20054;-67
2021/05/13 08:40:54;;;;;;;2.22;0.70;;;19.40;99.90;;;16.19;50.88;96677.94;4946302;29;20055;-66
2021/05/13 08:43:44;;;;;;;4.53;0.75;;;19.00;99.90;;;16.08;50.29;96684.03;4941612;28;20044;-65
2021/05/13 08:46:35;;;;;;;4.07;0.75;;;18.00;99.90;;;16.99;45.40;96675.91;4935143;29;20459;-67
2021/05/13 08:49:25;;;;;;;3.55;0.70;;;17.80;99.90;;;17.02;44.44;96678.28;4943665;28;20062;-66
2021/05/13 08:52:16;;;;;;;3.42;0.70;;;17.90;99.90;;;17.75;44.02;96690.44;4943604;29;20046;-66
2021/05/13 08:55:05;;;;;;;6.97;0.80;;;18.30;99.90;;;17.65;45.97;96672.97;4941687;28;20050;-66
2021/05/13 08:57:52;;;;;;;3.53;0.75;;;19.10;99.90;;;15.84;49.54;96689.41;4934086;29;20047;-65
2021/05/13 09:00:54;;;;;;;3.83;0.70;;;19.50;99.90;;;16.17;49.42;96690.34;4947718;28;20435;-66
2021/05/13 09:03:42;;;;;;;5.38;1.00;;;19.30;99.90;;;15.83;50.91;96687.75;4943332;28;20046;-65
2021/05/13 09:06:33;;;;;;;4.72;0.90;;;19.30;99.90;;;16.61;48.06;96680.69;4929319;29;20357;-65
2021/05/13 09:09:20;;;;;;;2.92;0.70;;;18.80;99.90;;;16.59;45.95;96669.50;4933937;29;20039;-65
2021/05/13 09:12:10;;;;;;;4.78;0.88;;;18.40;99.90;;;16.52;44.91;96678.81;4928158;29;20070;-65
2021/05/13 09:15:02;;;;;;;3.13;0.60;;;18.40;99.90;;;16.86;46.29;96681.34;4929431;29;20051;-64
2021/05/13 09:17:58;;;;;;;3.00;0.50;;;18.70;99.90;;;18.52;47.01;96664.53;4938590;29;20055;-67
2021/05/13 09:20:45;;;;;;;4.30;0.77;;;19.70;99.90;;;16.48;47.47;96667.75;4938785;28;20039;-67
2021/05/13 09:23:37;;;;;;;2.70;0.70;;;20.10;99.90;;;17.35;45.81;96651.00;4945535;28;20043;-66
2021/05/13 09:26:24;;;;;;;3.35;0.80;;;19.50;99.90;;;16.35;47.83;96656.59;4940705;29;20050;-67
2021/05/13 09:29:12;;;;;;;5.60;1.00;;;19.20;99.90;;;18.17;43.89;96650.09;4936437;29;20047;-67
2021/05/13 09:31:59;;;;;;;4.07;1.02;;;19.30;99.90;;;17.02;47.60;96646.84;4952221;29;20071;-67
2021/05/13 09:34:47;;;;;;;3.17;0.75;;;19.50;99.90;;;17.43;45.44;96658.25;4935842;29;20051;-67
2021/05/13 09:37:40;;;;;;;3.40;0.82;;;18.70;99.90;;;16.45;48.97;96651.47;4945490;29;20047;-67
2021/05/13 09:40:39;;;;;;;;;;;19.10;99.90;;;16.99;47.12;96647.94;4951387;29;20058;-67
2021/05/13 09:43:31;;;;;;;4.32;0.80;;;19.70;99.90;;;16.98;46.12;96655.91;4938676;28;20022;-67
2021/05/13 09:46:34;;;;;;;4.32;0.68;;;19.80;99.90;;;16.60;46.35;96644.94;4932879;29;20032;-66
2021/05/13 09:49:22;;;;;;;5.53;0.75;;;20.00;99.90;;;17.81;45.63;96648.88;4942333;28;20044;-66
2021/05/13 09:52:10;;;;;;;4.53;0.70;;;19.80;99.90;;;16.25;46.45;96659.13;4943192;28;20186;-67
2021/05/13 09:55:35;;;;;;;3.33;0.70;;;19.80;99.90;;;17.97;45.72;96646.59;4935026;29;20516;-67
2021/05/13 09:58:24;;;;;;;6.28;0.90;;;19.30;99.90;;;16.66;49.72;96643.63;4893346;29;20486;-67
2021/05/13 10:01:14;;;;;;;4.65;0.70;;;19.40;99.90;;;16.12;47.52;96658.44;4892854;29;20049;-66
2021/05/13 10:04:05;;;;;;;4.10;0.80;;;19.10;99.90;;;15.58;46.68;96667.03;4946398;29;20264;-67
2021/05/13 10:06:53;;;;;;;11.85;0.80;;;18.50;99.90;;;15.21;48.35;96655.00;4953091;29;20609;-66
2021/05/13 10:09:23;;;;;;;4.60;0.80;;;18.00;99.90;;;15.33;48.93;96655.84;4928575;29;20524;-66
2021/05/13 10:12:00;;;;;;;5.00;0.70;;;17.30;99.90;;;15.44;49.41;96655.84;4902506;29;20067;-66
2021/05/13 10:14:51;;;;;;;5.38;1.13;;;17.00;99.90;;;15.19;51.61;96659.50;4909529;29;20115;-66
2021/05/13 10:17:43;;;;;;;4.72;1.00;;;17.10;99.90;;;15.32;52.32;96653.34;4950975;29;20399;-66
2021/05/13 10:20:32;;;;;;;4.90;0.90;;;17.30;99.90;;;15.75;53.14;96647.44;4938404;29;20134;-66
2021/05/13 10:23:20;;;;;;;3.28;0.85;;;17.90;99.90;;;16.68;50.58;96637.31;4942605;29;20088;-66
2021/05/13 10:26:20;;;;;;;2.80;0.75;;;18.40;99.90;;;17.50;48.10;96636.59;4948689;29;20043;-66
2021/05/13 10:29:22;;;;;;;3.90;0.80;;;18.60;99.90;;;16.27;49.34;96628.41;4930387;29;20047;-66
2021/05/13 10:32:32;;;;;;;4.93;0.90;;;18.40;99.90;;;15.47;52.15;96620.78;4950881;29;20179;-66
2021/05/13 10:35:23;;;;;;;2.88;0.88;;;17.80;99.90;;;15.75;52.47;96634.34;4934882;29;20070;-66
2021/05/13 10:38:13;;;;;;;5.85;0.95;;;18.00;99.90;;;15.55;51.63;96639.31;4938181;29;20039;-67
2021/05/13 10:41:30;;;;;;;3.70;0.90;;;18.10;99.90;;;15.78;51.62;96634.97;4932490;29;20039;-66
2021/05/13 10:44:18;;;;;;;3.67;0.95;;;18.10;99.90;;;14.92;54.03;96646.75;4950781;29;20036;-66
2021/05/13 10:47:06;;;;;;;10.93;1.90;;;18.60;99.90;;;15.34;53.53;96636.59;4943933;29;20059;-66
2021/05/13 10:49:55;;;;;;;6.50;0.88;;;18.60;99.90;;;16.01;52.00;96632.28;4934508;29;20175;-66
2021/05/13 10:52:44;;;;;;;2.60;0.65;;;17.90;99.90;;;14.33;54.49;96657.19;4924663;29;20059;-66
2021/05/13 10:55:37;;;;;;;4.10;0.80;;;17.60;99.90;;;14.82;52.75;96646.59;4928575;29;20417;-66
2021/05/13 10:59:03;;;;;;;4.80;0.80;;;17.40;99.90;;;15.36;51.71;96649.53;4943558;29;20051;-66
2021/05/13 11:01:53;;;;;;;2.75;0.80;;;17.50;99.90;;;15.55;50.81;96634.09;4935728;29;20110;-66
2021/05/13 11:04:42;;;;;;;4.78;0.82;;;17.80;99.90;;;15.63;49.46;96628.28;4930081;29;20476;-67
2021/05/13 11:07:31;;;;;;;4.20;1.25;;;19.10;99.90;;;16.67;48.89;96629.56;4946430;29;20153;-67
2021/05/13 11:10:18;;;;;;;1.95;0.63;;;20.10;99.90;;;17.42;46.79;96633.78;4933423;29;20043;-66
2021/05/13 11:13:10;;;;;;;2.35;0.60;;;19.90;99.90;;;16.27;50.15;96622.34;4941396;29;20091;-66
2021/05/13 11:15:57;;;;;;;4.82;0.80;;;19.90;99.90;;;17.50;48.74;96626.09;4940301;29;20062;-67
2021/05/13 11:18:45;;;;;;;3.45;0.60;;;20.00;99.90;;;16.63;47.86;96629.00;4945322;29;20171;-66
2021/05/13 11:21:56;;;;;;;4.75;1.02;;;19.50;99.90;;;16.51;47.01;96632.59;4946998;28;20050;-66
2021/05/13 11:24:43;;;;;;;2.83;0.50;;;18.90;99.90;;;15.56;51.10;96633.16;4933170;29;20047;-66
2021/05/13 11:27:30;;;;;;;6.13;0.95;;;18.80;99.90;;;15.85;49.87;96617.81;4949076;29;20392;-66
2021/05/13 11:30:25;;;;;;;4.60;0.73;;;18.20;99.90;;;16.72;49.77;96628.25;4933268;29;20054;-66
2021/05/13 11:33:13;;;;;;;5.13;1.27;;;18.70;99.90;;;16.83;51.52;96626.53;4940360;29;20372;-66
2021/05/13 11:36:12;;;;;;;3.53;0.88;;;19.60;99.90;;;16.84;50.85;96615.13;4945507;29;20050;-66
2021/05/13 11:39:09;;;;;;;5.30;1.00;;;19.40;99.90;;;16.60;53.39;96615.31;4932770;29;20051;-66
2021/05/13 11:42:01;;;;;;;4.88;1.13;;;19.90;99.90;;;15.85;54.07;96650.97;4929974;29;20046;-66
2021/05/13 11:45:00;;;;;;;5.70;1.05;;;20.00;99.90;;;15.97;54.73;96636.13;4939802;29;20043;-66
2021/05/13 11:47:48;;;;;;;2.58;0.77;;;20.40;99.90;;;16.07;54.16;96630.00;4935415;29;20043;-67
2021/05/13 11:50:36;;;;;;;5.07;1.02;;;20.00;99.90;;;16.96;53.69;96611.47;4918934;29;20040;-66
2021/05/13 11:53:24;;;;;;;3.03;0.93;;;19.50;99.90;;;17.32;51.33;96630.28;4944994;28;20063;-67
2021/05/13 11:56:14;;;;;;;4.00;1.00;;;19.30;99.90;;;17.37;52.28;96608.91;4937338;29;20043;-66
2021/05/13 11:59:12;;;;;;;4.00;0.90;;;19.30;99.90;;;17.32;50.65;96619.81;4932391;29;20060;-66
2021/05/13 12:02:02;;;;;;;4.80;1.15;;;19.50;99.90;;;16.09;49.13;96616.81;4929551;29;20044;-66
2021/05/13 12:04:49;;;;;;;7.70;1.30;;;19.30;99.90;;;16.95;48.32;96606.38;4943446;29;20071;-66